Time;durP1;ratioP1;P1;durP2;ratioP2;P2;SDS_P1;SDS_P2;PMS_P1;PMS_P2;Temp;Humidity;BMP_temperature;BMP_pressure;BME280_temperature;BME280_humidity;BME280_pressure;Samples;Min_cycle;Max_cycle;Signal;HPM_P1;HPM_P2
2023/01/30 00:00:54;;;;;;;37.53;33.47;;;;;;;;;;5099618;28;20207;-86
2023/01/30 00:03:22;;;;;;;34.45;31.08;;;;;;;;;;5103320;28;20217;-86
2023/01/30 00:05:49;;;;;;;36.33;32.53;;;;;;;;;;5100467;28;20228;-87
2023/01/30 00:08:17;;;;;;;34.25;30.67;;;;;;;;;;5103389;28;20246;-87
2023/01/30 00:10:44;;;;;;;32.85;29.75;;;;;;;;;;5101051;28;20212;-86
2023/01/30 00:13:11;;;;;;;40.30;35.95;;;;;;;;;;5100147;28;20204;-86
2023/01/30 00:15:39;;;;;;;36.05;32.13;;;;;;;;;;5102958;28;20228;-87
2023/01/30 00:18:06;;;;;;;46.67;36.58;;;;;;;;;;5101278;28;20231;-86
2023/01/30 00:20:34;;;;;;;32.53;29.27;;;;;;;;;;5100001;28;20249;-86
2023/01/30 00:23:01;;;;;;;38.42;33.42;;;;;;;;;;5102199;28;20624;-85
2023/01/30 00:25:30;;;;;;;51.72;39.40;;;;;;;;;;5100875;28;20258;-86
2023/01/30 00:27:57;;;;;;;30.17;27.30;;;;;;;;;;5100458;28;20689;-86
2023/01/30 00:30:24;;;;;;;31.58;27.58;;;;;;;;;;5103945;28;20206;-87
2023/01/30 00:32:55;;;;;;;28.10;25.83;;;;;;;;;;5100149;28;20209;-86
2023/01/30 00:35:27;;;;;;;36.40;29.98;;;;;;;;;;5098848;28;20224;-87
2023/01/30 00:37:54;;;;;;;45.10;34.22;;;;;;;;;;5099699;28;20213;-86
2023/01/30 00:40:21;;;;;;;28.75;26.17;;;;;;;;;;5098881;28;20237;-86
2023/01/30 00:48:19;;;;;;;37.97;33.92;;;;;;;;;;5098815;28;20264;-86
2023/01/30 00:50:46;;;;;;;33.28;29.67;;;;;;;;;;5100396;28;20204;-87
2023/01/30 00:53:14;;;;;;;35.72;31.77;;;;;;;;;;5101577;28;20209;-86
2023/01/30 00:55:42;;;;;;;31.38;28.42;;;;;;;;;;5102355;28;20768;-87
2023/01/30 00:58:09;;;;;;;30.27;27.40;;;;;;;;;;5104566;28;20239;-86
2023/01/30 01:00:36;;;;;;;37.05;33.25;;;;;;;;;;5102016;28;20191;-86
2023/01/30 01:03:04;;;;;;;36.70;30.25;;;;;;;;;;5106384;28;20208;-86
2023/01/30 01:05:32;;;;;;;46.78;37.35;;;;;;;;;;5105863;28;20552;-86
2023/01/30 01:07:59;;;;;;;33.83;30.13;;;;;;;;;;5107001;28;20213;-86
2023/01/30 01:10:26;;;;;;;34.55;29.35;;;;;;;;;;5103215;28;20196;-86
2023/01/30 01:12:53;;;;;;;31.48;28.65;;;;;;;;;;5103426;28;20218;-87
2023/01/30 01:15:20;;;;;;;34.15;30.58;;;;;;;;;;5102893;28;20243;-87
2023/01/30 01:17:47;;;;;;;39.92;31.27;;;;;;;;;;5103661;28;20247;-86
2023/01/30 01:20:15;;;;;;;36.92;32.95;;;;;;;;;;5103356;28;20271;-86
2023/01/30 01:22:43;;;;;;;47.97;37.50;;;;;;;;;;5102535;28;20263;-87
2023/01/30 01:25:11;;;;;;;38.45;34.03;;;;;;;;;;5104161;28;20249;-87
2023/01/30 01:27:38;;;;;;;46.83;37.92;;;;;;;;;;5103758;28;20186;-87
2023/01/30 01:30:05;;;;;;;29.38;26.40;;;;;;;;;;5103333;28;20330;-87
2023/01/30 01:32:32;;;;;;;39.10;33.88;;;;;;;;;;5101668;28;20208;-87
2023/01/30 01:34:59;;;;;;;35.10;31.75;;;;;;;;;;5102649;28;20232;-87
2023/01/30 01:37:26;;;;;;;32.10;28.98;;;;;;;;;;5102749;28;20212;-87
2023/01/30 01:42:39;;;;;;;50.55;38.50;;;;;;;;;;5102636;28;20206;-87
2023/01/30 01:45:14;;;;;;;35.92;32.47;;;;;;;;;;5102861;28;20278;-87
2023/01/30 01:47:44;;;;;;;53.30;40.28;;;;;;;;;;5101929;28;20207;-87
2023/01/30 01:50:13;;;;;;;36.50;32.47;;;;;;;;;;5102270;28;20741;-87
2023/01/30 01:52:40;;;;;;;38.22;33.83;;;;;;;;;;5101155;28;20234;-87
2023/01/30 01:55:09;;;;;;;50.15;40.78;;;;;;;;;;5102402;28;20219;-87
2023/01/30 01:57:38;;;;;;;33.50;30.00;;;;;;;;;;5103050;28;20216;-86
2023/01/30 02:00:08;;;;;;;39.53;34.95;;;;;;;;;;5102744;28;20205;-87
2023/01/30 02:02:36;;;;;;;36.83;33.15;;;;;;;;;;5100763;28;20224;-87
2023/01/30 02:05:05;;;;;;;34.47;30.98;;;;;;;;;;5102125;28;20232;-87
2023/01/30 02:07:35;;;;;;;32.70;29.45;;;;;;;;;;5101868;28;20207;-87
2023/01/30 02:10:02;;;;;;;33.30;30.13;;;;;;;;;;5102015;28;20198;-87
2023/01/30 02:12:31;;;;;;;39.13;34.88;;;;;;;;;;5101115;28;20221;-87
2023/01/30 02:14:59;;;;;;;42.53;37.88;;;;;;;;;;5100910;28;20579;-87
2023/01/30 02:17:26;;;;;;;31.27;28.60;;;;;;;;;;5101763;28;20262;-87
2023/01/30 02:19:55;;;;;;;53.00;42.42;;;;;;;;;;5102170;28;20687;-87
2023/01/30 02:22:37;;;;;;;40.17;35.25;;;;;;;;;;5101816;28;20251;-87
2023/01/30 02:25:18;;;;;;;38.67;34.60;;;;;;;;;;5100751;28;20235;-87
2023/01/30 02:28:01;;;;;;;60.75;42.00;;;;;;;;;;5101498;28;20582;-87
2023/01/30 02:30:52;;;;;;;52.72;42.85;;;;;;;;;;5100552;28;20235;-87
2023/01/30 02:33:23;;;;;;;62.47;42.25;;;;;;;;;;5100517;28;20192;-86
2023/01/30 02:35:54;;;;;;;36.47;33.08;;;;;;;;;;5099977;28;20768;-87
2023/01/30 02:38:30;;;;;;;36.58;33.10;;;;;;;;;;5100492;28;20217;-87
2023/01/30 02:41:01;;;;;;;55.58;43.28;;;;;;;;;;5101021;28;20244;-86
2023/01/30 02:43:32;;;;;;;43.05;37.13;;;;;;;;;;5100598;28;20246;-86
2023/01/30 02:46:03;;;;;;;39.70;35.45;;;;;;;;;;5100230;28;20224;-86
2023/01/30 02:48:35;;;;;;;53.75;41.88;;;;;;;;;;5100166;28;20181;-86
2023/01/30 02:51:06;;;;;;;36.90;32.92;;;;;;;;;;5099648;28;20243;-86
2023/01/30 02:53:33;;;;;;;40.33;36.03;;;;;;;;;;5099682;28;20231;-86
2023/01/30 02:56:00;;;;;;;56.72;42.90;;;;;;;;;;5097973;28;20658;-86
2023/01/30 02:58:29;;;;;;;51.83;40.03;;;;;;;;;;5099402;28;20221;-85
2023/01/30 03:01:04;;;;;;;35.92;32.42;;;;;;;;;;5099543;28;20208;-85
2023/01/30 03:03:36;;;;;;;50.20;40.80;;;;;;;;;;5097977;28;20220;-86
2023/01/30 03:06:16;;;;;;;58.30;43.65;;;;;;;;;;5097487;28;20633;-85
2023/01/30 03:08:48;;;;;;;36.25;32.45;;;;;;;;;;5097196;28;20361;-86
2023/01/30 03:11:15;;;;;;;42.13;37.53;;;;;;;;;;5096931;28;20190;-87
2023/01/30 03:13:48;;;;;;;43.03;35.78;;;;;;;;;;5097345;28;20233;-85
2023/01/30 03:16:18;;;;;;;32.40;29.75;;;;;;;;;;5096481;28;20563;-87
2023/01/30 03:18:46;;;;;;;39.33;35.25;;;;;;;;;;5095996;28;20274;-86
2023/01/30 03:21:13;;;;;;;36.28;32.58;;;;;;;;;;5097774;28;20212;-87
2023/01/30 03:23:40;;;;;;;41.72;37.30;;;;;;;;;;5099692;28;20209;-86
2023/01/30 03:26:12;;;;;;;41.05;34.60;;;;;;;;;;5099202;28;20262;-86
2023/01/30 03:28:39;;;;;;;39.90;34.30;;;;;;;;;;5100570;28;20201;-86
2023/01/30 03:31:06;;;;;;;37.40;33.88;;;;;;;;;;5100382;28;20242;-86
2023/01/30 03:33:33;;;;;;;38.28;34.22;;;;;;;;;;5100366;28;20201;-86
2023/01/30 03:36:01;;;;;;;43.35;38.58;;;;;;;;;;5099844;28;20274;-86
2023/01/30 03:38:28;;;;;;;36.92;32.90;;;;;;;;;;5100096;28;20250;-87
2023/01/30 03:40:55;;;;;;;44.08;37.95;;;;;;;;;;5099945;28;20259;-87
2023/01/30 03:43:22;;;;;;;40.53;36.08;;;;;;;;;;5099886;28;20227;-86
2023/01/30 03:45:49;;;;;;;43.08;37.72;;;;;;;;;;5100726;28;20224;-86
2023/01/30 03:48:16;;;;;;;39.75;35.80;;;;;;;;;;5100167;28;20209;-86
2023/01/30 03:50:43;;;;;;;48.35;37.38;;;;;;;;;;5099403;28;20204;-86
2023/01/30 03:53:12;;;;;;;40.80;37.00;;;;;;;;;;5099570;28;20202;-86
2023/01/30 03:55:39;;;;;;;43.13;38.88;;;;;;;;;;5098505;28;20266;-87
2023/01/30 03:58:06;;;;;;;45.70;41.13;;;;;;;;;;5099649;28;20296;-87
2023/01/30 04:00:33;;;;;;;44.30;39.72;;;;;;;;;;5100064;28;20229;-87
2023/01/30 04:03:00;;;;;;;44.13;39.47;;;;;;;;;;5097738;28;20210;-87
2023/01/30 04:05:27;;;;;;;39.00;35.88;;;;;;;;;;5099344;28;20238;-86
2023/01/30 04:07:57;;;;;;;42.60;38.72;;;;;;;;;;5098516;28;20615;-87
2023/01/30 04:10:25;;;;;;;62.67;52.30;;;;;;;;;;5099197;28;20202;-87
2023/01/30 04:12:52;;;;;;;48.22;44.13;;;;;;;;;;5103445;28;20654;-87
2023/01/30 04:15:19;;;;;;;58.50;49.50;;;;;;;;;;5097771;28;20254;-87
2023/01/30 04:17:47;;;;;;;60.15;50.00;;;;;;;;;;5097435;28;20200;-88
2023/01/30 04:20:14;;;;;;;54.38;47.85;;;;;;;;;;5099076;28;20229;-88
2023/01/30 04:22:41;;;;;;;66.32;52.72;;;;;;;;;;5096429;28;20625;-88
2023/01/30 04:25:08;;;;;;;52.55;47.40;;;;;;;;;;5096994;28;20298;-88
2023/01/30 04:27:37;;;;;;;54.97;50.45;;;;;;;;;;5096410;28;20230;-87
2023/01/30 04:30:04;;;;;;;99.20;77.43;;;;;;;;;;5096430;28;20251;-88
2023/01/30 04:32:31;;;;;;;71.38;64.43;;;;;;;;;;5095222;28;20211;-88
2023/01/30 04:34:58;;;;;;;69.70;63.30;;;;;;;;;;5095624;28;20274;-88
2023/01/30 04:37:25;;;;;;;68.65;61.90;;;;;;;;;;5097640;28;20197;-88
2023/01/30 04:39:52;;;;;;;69.43;62.88;;;;;;;;;;5100170;28;20216;-88
2023/01/30 04:42:19;;;;;;;64.72;58.67;;;;;;;;;;5099700;28;20250;-88
2023/01/30 04:44:47;;;;;;;66.97;60.15;;;;;;;;;;5101818;28;20232;-89
2023/01/30 04:47:14;;;;;;;55.65;51.10;;;;;;;;;;5099737;28;20185;-88
2023/01/30 04:49:42;;;;;;;61.25;55.38;;;;;;;;;;5099776;28;20262;-88
2023/01/30 04:52:09;;;;;;;52.05;48.00;;;;;;;;;;5099111;28;20204;-88
2023/01/30 04:54:36;;;;;;;56.55;52.25;;;;;;;;;;5099153;28;20225;-88
2023/01/30 04:57:03;;;;;;;60.45;55.20;;;;;;;;;;5099566;28;20601;-89
2023/01/30 04:59:30;;;;;;;67.88;60.63;;;;;;;;;;5098831;28;20225;-88
2023/01/30 05:01:58;;;;;;;58.38;53.67;;;;;;;;;;5098145;28;20262;-88
2023/01/30 05:04:25;;;;;;;60.65;55.25;;;;;;;;;;5098857;28;20204;-88
2023/01/30 05:06:52;;;;;;;54.85;50.63;;;;;;;;;;5098726;28;20266;-88
2023/01/30 05:09:19;;;;;;;52.65;48.97;;;;;;;;;;5099184;28;20233;-88
2023/01/30 05:11:47;;;;;;;59.10;53.95;;;;;;;;;;5100327;28;20624;-88
2023/01/30 05:14:14;;;;;;;55.10;50.53;;;;;;;;;;5098893;28;20270;-89
2023/01/30 05:16:41;;;;;;;58.42;53.28;;;;;;;;;;5098839;28;20200;-88
2023/01/30 05:19:09;;;;;;;55.00;50.70;;;;;;;;;;5099553;28;20637;-88
2023/01/30 05:21:36;;;;;;;61.33;55.33;;;;;;;;;;5098135;28;20197;-88
2023/01/30 05:24:04;;;;;;;59.08;54.03;;;;;;;;;;5098547;28;20202;-88
2023/01/30 05:26:31;;;;;;;66.55;59.60;;;;;;;;;;5098095;28;20320;-88
2023/01/30 05:28:58;;;;;;;63.85;57.83;;;;;;;;;;5098374;28;20732;-89
2023/01/30 05:31:26;;;;;;;56.80;51.35;;;;;;;;;;5097649;28;20648;-88
2023/01/30 05:33:53;;;;;;;55.75;51.28;;;;;;;;;;5098600;28;20616;-88
2023/01/30 05:36:22;;;;;;;51.92;48.08;;;;;;;;;;5098369;28;20228;-89
2023/01/30 05:38:49;;;;;;;61.95;56.33;;;;;;;;;;5097777;28;20212;-89
2023/01/30 05:41:17;;;;;;;61.70;56.67;;;;;;;;;;5097623;28;20931;-89
2023/01/30 05:43:44;;;;;;;61.80;56.95;;;;;;;;;;5097934;28;20250;-88
2023/01/30 05:46:11;;;;;;;60.30;55.28;;;;;;;;;;5097450;28;20635;-89
2023/01/30 05:48:39;;;;;;;57.08;53.08;;;;;;;;;;5096962;28;20266;-88
2023/01/30 05:51:06;;;;;;;53.78;50.20;;;;;;;;;;5097777;28;20720;-88
2023/01/30 05:53:35;;;;;;;57.22;52.90;;;;;;;;;;5097578;28;20198;-89
2023/01/30 05:56:03;;;;;;;57.28;53.20;;;;;;;;;;5098103;28;20257;-88
2023/01/30 05:58:30;;;;;;;61.42;57.00;;;;;;;;;;5097617;28;20216;-88
2023/01/30 06:01:00;;;;;;;57.92;53.83;;;;;;;;;;5098973;28;20229;-88
2023/01/30 06:03:27;;;;;;;51.53;47.92;;;;;;;;;;5099949;28;20235;-88
2023/01/30 06:06:19;;;;;;;49.58;46.28;;;;;;;;;;5099787;28;20211;-88
2023/01/30 06:08:48;;;;;;;44.63;41.95;;;;;;;;;;5099617;28;20200;-88
2023/01/30 06:11:17;;;;;;;44.50;41.85;;;;;;;;;;5100662;28;20194;-89
2023/01/30 06:13:44;;;;;;;45.83;42.70;;;;;;;;;;5098765;28;20205;-88
2023/01/30 06:16:13;;;;;;;44.03;41.08;;;;;;;;;;5098565;28;20233;-88
2023/01/30 06:18:40;;;;;;;44.90;42.20;;;;;;;;;;5101482;28;20241;-88
2023/01/30 06:21:07;;;;;;;44.33;41.63;;;;;;;;;;5100123;28;20308;-88
2023/01/30 06:23:34;;;;;;;48.60;44.92;;;;;;;;;;5100058;28;20209;-87
2023/01/30 06:26:03;;;;;;;43.33;40.33;;;;;;;;;;5098280;28;20247;-88
2023/01/30 06:28:30;;;;;;;45.75;42.80;;;;;;;;;;5099519;28;20193;-88
2023/01/30 06:30:57;;;;;;;49.75;46.00;;;;;;;;;;5098453;28;20239;-89
2023/01/30 06:33:24;;;;;;;48.90;45.30;;;;;;;;;;5096626;28;20205;-87
2023/01/30 06:35:51;;;;;;;46.53;43.33;;;;;;;;;;5098350;28;20230;-88
2023/01/30 06:38:19;;;;;;;45.42;42.45;;;;;;;;;;5099030;28;20214;-88
2023/01/30 06:40:47;;;;;;;51.80;47.60;;;;;;;;;;5097961;28;20221;-88
2023/01/30 06:43:15;;;;;;;53.08;49.38;;;;;;;;;;5096713;28;20208;-88
2023/01/30 06:45:42;;;;;;;46.72;43.42;;;;;;;;;;5095915;28;20692;-88
2023/01/30 06:48:10;;;;;;;44.00;40.75;;;;;;;;;;5096556;28;20213;-87
2023/01/30 06:50:37;;;;;;;45.05;41.75;;;;;;;;;;5098204;28;20202;-87
2023/01/30 06:53:05;;;;;;;47.00;43.72;;;;;;;;;;5098389;28;20198;-88
2023/01/30 06:55:33;;;;;;;47.85;44.45;;;;;;;;;;5096745;28;20232;-89
2023/01/30 06:58:04;;;;;;;47.00;43.60;;;;;;;;;;5096839;28;20205;-88
2023/01/30 07:00:33;;;;;;;42.35;39.80;;;;;;;;;;5096339;28;20217;-88
2023/01/30 07:03:00;;;;;;;42.78;40.13;;;;;;;;;;5097016;28;20223;-88
2023/01/30 07:05:28;;;;;;;38.42;35.38;;;;;;;;;;5100962;28;20225;-86
2023/01/30 07:07:55;;;;;;;41.83;38.08;;;;;;;;;;5104830;28;20205;-85
2023/01/30 07:10:22;;;;;;;39.80;37.00;;;;;;;;;;5103013;28;20217;-85
2023/01/30 07:12:49;;;;;;;37.85;35.25;;;;;;;;;;5103824;28;20242;-85
2023/01/30 07:15:16;;;;;;;37.63;35.00;;;;;;;;;;5100887;28;20280;-85
2023/01/30 07:17:44;;;;;;;33.97;31.67;;;;;;;;;;5100342;28;20251;-85
2023/01/30 07:20:12;;;;;;;36.97;34.47;;;;;;;;;;5104865;28;20275;-86
2023/01/30 07:22:39;;;;;;;32.33;30.42;;;;;;;;;;5105646;28;20666;-85
2023/01/30 07:25:06;;;;;;;32.13;30.13;;;;;;;;;;5104574;28;20283;-85
2023/01/30 07:27:34;;;;;;;30.15;28.35;;;;;;;;;;5105030;28;20231;-88
2023/01/30 07:30:01;;;;;;;32.97;30.45;;;;;;;;;;5102879;28;20262;-87
2023/01/30 07:32:28;;;;;;;35.42;32.83;;;;;;;;;;5103295;28;20224;-87
2023/01/30 07:35:10;;;;;;;33.50;31.00;;;;;;;;;;5100842;28;20270;-89
2023/01/30 07:37:37;;;;;;;34.30;31.75;;;;;;;;;;5103115;28;20187;-86
2023/01/30 07:40:04;;;;;;;30.52;28.70;;;;;;;;;;5102714;28;20265;-86
2023/01/30 07:42:31;;;;;;;32.70;30.45;;;;;;;;;;5102055;28;20210;-86
2023/01/30 07:44:58;;;;;;;30.05;28.25;;;;;;;;;;5102619;28;20718;-84
2023/01/30 07:47:25;;;;;;;33.53;31.33;;;;;;;;;;5099596;28;20209;-80
2023/01/30 07:49:52;;;;;;;30.25;28.55;;;;;;;;;;5099697;28;20236;-79
2023/01/30 07:52:20;;;;;;;35.28;32.67;;;;;;;;;;5098893;28;20206;-79
2023/01/30 07:54:47;;;;;;;32.58;29.90;;;;;;;;;;5097575;28;20254;-79
2023/01/30 07:57:14;;;;;;;31.38;28.98;;;;;;;;;;5095928;28;20208;-80
2023/01/30 07:59:41;;;;;;;32.65;30.30;;;;;;;;;;5095567;28;20213;-80
2023/01/30 08:02:09;;;;;;;31.27;28.95;;;;;;;;;;5094118;28;20689;-80
2023/01/30 08:04:37;;;;;;;30.50;28.52;;;;;;;;;;5096947;28;20221;-79
2023/01/30 08:07:04;;;;;;;31.60;28.90;;;;;;;;;;5096740;28;20202;-79
2023/01/30 08:09:32;;;;;;;27.05;25.55;;;;;;;;;;5098819;28;20198;-79
2023/01/30 08:11:59;;;;;;;26.52;25.08;;;;;;;;;;5103705;28;20205;-80
2023/01/30 08:14:27;;;;;;;29.23;26.65;;;;;;;;;;5104022;28;20663;-79
2023/01/30 08:16:54;;;;;;;28.60;25.58;;;;;;;;;;5104742;28;20210;-80
2023/01/30 08:19:21;;;;;;;27.65;26.02;;;;;;;;;;5105094;28;20209;-80
2023/01/30 08:21:48;;;;;;;24.60;23.13;;;;;;;;;;5104094;28;20250;-79
2023/01/30 08:24:15;;;;;;;26.00;24.23;;;;;;;;;;5102874;28;20680;-80
2023/01/30 08:26:43;;;;;;;23.83;22.52;;;;;;;;;;5101604;28;20258;-79
2023/01/30 08:29:11;;;;;;;26.73;24.77;;;;;;;;;;5102054;28;20201;-79
2023/01/30 08:31:38;;;;;;;24.42;22.42;;;;;;;;;;5098309;28;20209;-78
2023/01/30 08:34:05;;;;;;;29.35;22.63;;;;;;;;;;5097430;28;20200;-78
2023/01/30 08:36:32;;;;;;;23.50;22.02;;;;;;;;;;5097941;28;20222;-78
2023/01/30 08:38:59;;;;;;;23.25;21.48;;;;;;;;;;5096829;28;20208;-78
2023/01/30 08:41:27;;;;;;;22.67;21.33;;;;;;;;;;5096272;28;20625;-78
2023/01/30 08:43:55;;;;;;;24.48;22.27;;;;;;;;;;5097535;28;20213;-77
2023/01/30 08:46:22;;;;;;;24.48;22.13;;;;;;;;;;5096171;28;20599;-77
2023/01/30 08:48:49;;;;;;;22.25;20.50;;;;;;;;;;5097267;28;20653;-78
2023/01/30 08:51:16;;;;;;;22.05;20.75;;;;;;;;;;5097573;28;20215;-78
2023/01/30 08:53:43;;;;;;;22.90;21.35;;;;;;;;;;5097306;28;20686;-77
2023/01/30 08:56:10;;;;;;;23.33;21.58;;;;;;;;;;5097458;28;20233;-78
2023/01/30 08:58:37;;;;;;;22.38;20.75;;;;;;;;;;5097629;28;20209;-78
2023/01/30 09:01:07;;;;;;;22.20;20.50;;;;;;;;;;5097347;28;20229;-77
2023/01/30 09:03:34;;;;;;;24.50;22.75;;;;;;;;;;5096711;28;20219;-78
2023/01/30 09:06:01;;;;;;;23.33;21.15;;;;;;;;;;5097821;28;20279;-85
2023/01/30 09:08:28;;;;;;;20.83;19.42;;;;;;;;;;5100692;28;20255;-79
2023/01/30 09:10:58;;;;;;;22.27;20.23;;;;;;;;;;5099873;28;20197;-78
2023/01/30 09:13:25;;;;;;;21.00;19.70;;;;;;;;;;5098782;28;20627;-79
2023/01/30 09:15:52;;;;;;;24.92;20.92;;;;;;;;;;5098084;28;20225;-78
2023/01/30 09:18:20;;;;;;;22.23;20.63;;;;;;;;;;5097278;28;20671;-78
2023/01/30 09:20:47;;;;;;;20.70;19.50;;;;;;;;;;5097161;28;20286;-79
2023/01/30 09:23:14;;;;;;;23.05;21.40;;;;;;;;;;5095657;28;20201;-78
2023/01/30 09:25:41;;;;;;;22.40;21.00;;;;;;;;;;5103449;28;20279;-79
2023/01/30 09:28:08;;;;;;;24.23;22.27;;;;;;;;;;5099452;28;20210;-79
2023/01/30 09:30:35;;;;;;;22.00;20.58;;;;;;;;;;5097177;28;20624;-78
2023/01/30 09:33:02;;;;;;;23.48;21.60;;;;;;;;;;5096418;28;20208;-78
2023/01/30 09:35:31;;;;;;;23.00;21.40;;;;;;;;;;5099681;28;20225;-78
2023/01/30 09:37:59;;;;;;;24.45;21.17;;;;;;;;;;5097785;28;20264;-80
2023/01/30 09:40:27;;;;;;;23.42;21.48;;;;;;;;;;5096449;28;20702;-78
2023/01/30 09:43:00;;;;;;;25.40;23.20;;;;;;;;;;5096942;28;20205;-78
2023/01/30 09:45:32;;;;;;;23.67;21.75;;;;;;;;;;5100176;28;20226;-78
2023/01/30 09:48:04;;;;;;;23.02;21.27;;;;;;;;;;5097413;28;20210;-78
2023/01/30 09:50:39;;;;;;;24.20;22.23;;;;;;;;;;5097810;28;20186;-78
2023/01/30 09:53:08;;;;;;;21.73;20.00;;;;;;;;;;5097433;28;20682;-79
2023/01/30 09:55:37;;;;;;;21.45;19.92;;;;;;;;;;5097757;28;20225;-78
2023/01/30 09:58:05;;;;;;;21.35;19.67;;;;;;;;;;5098084;28;20234;-78
2023/01/30 10:00:35;;;;;;;22.13;20.30;;;;;;;;;;5098163;28;20225;-78
2023/01/30 10:03:05;;;;;;;21.52;19.50;;;;;;;;;;5097687;28;20213;-78
2023/01/30 10:05:36;;;;;;;21.20;19.55;;;;;;;;;;5097505;28;20230;-78
2023/01/30 10:08:17;;;;;;;21.08;19.15;;;;;;;;;;5098322;28;20189;-78
2023/01/30 10:10:48;;;;;;;21.92;19.95;;;;;;;;;;5099312;28;20212;-79
2023/01/30 10:13:26;;;;;;;20.70;18.92;;;;;;;;;;5104081;28;20280;-79
2023/01/30 10:15:54;;;;;;;23.30;20.75;;;;;;;;;;5104770;28;20282;-78
2023/01/30 10:18:30;;;;;;;19.88;18.58;;;;;;;;;;5099961;28;20613;-78
2023/01/30 10:21:04;;;;;;;21.45;20.15;;;;;;;;;;5099719;28;20255;-78
2023/01/30 10:23:43;;;;;;;20.88;19.15;;;;;;;;;;5101817;28;20250;-78
2023/01/30 10:26:11;;;;;;;22.52;20.20;;;;;;;;;;5101738;28;20265;-78
2023/01/30 10:28:41;;;;;;;20.70;19.10;;;;;;;;;;5102326;28;20206;-78
2023/01/30 10:31:14;;;;;;;22.00;20.15;;;;;;;;;;5100627;28;20224;-79
2023/01/30 10:33:44;;;;;;;21.27;19.58;;;;;;;;;;5109262;28;20218;-78
2023/01/30 10:36:12;;;;;;;22.23;20.38;;;;;;;;;;5104416;28;20221;-79
2023/01/30 10:38:45;;;;;;;20.88;19.45;;;;;;;;;;5100729;28;20240;-79
2023/01/30 10:41:18;;;;;;;20.75;19.33;;;;;;;;;;5102358;28;20676;-78
2023/01/30 10:43:47;;;;;;;20.63;19.27;;;;;;;;;;5100927;28;20244;-79
2023/01/30 10:46:22;;;;;;;21.52;20.00;;;;;;;;;;5100395;28;20248;-78
2023/01/30 10:48:53;;;;;;;24.13;19.42;;;;;;;;;;5101059;28;20238;-79
2023/01/30 10:51:25;;;;;;;22.00;20.23;;;;;;;;;;5102202;28;20242;-78
2023/01/30 10:53:59;;;;;;;21.45;19.65;;;;;;;;;;5102441;28;20639;-79
2023/01/30 10:56:30;;;;;;;22.83;21.05;;;;;;;;;;5098876;28;20251;-78
2023/01/30 10:59:02;;;;;;;20.63;19.33;;;;;;;;;;5099483;28;20705;-79
2023/01/30 11:01:33;;;;;;;22.75;20.85;;;;;;;;;;5101509;28;20671;-79
2023/01/30 11:04:02;;;;;;;22.02;20.60;;;;;;;;;;5103419;28;20292;-78
2023/01/30 11:06:30;;;;;;;25.00;21.25;;;;;;;;;;5099519;28;20642;-78
2023/01/30 11:08:58;;;;;;;22.10;19.98;;;;;;;;;;5102988;28;20206;-78
2023/01/30 11:11:27;;;;;;;21.65;20.02;;;;;;;;;;5100734;28;20205;-78
2023/01/30 11:14:01;;;;;;;22.45;20.63;;;;;;;;;;5099942;28;20201;-77
2023/01/30 11:16:28;;;;;;;20.95;19.75;;;;;;;;;;5095196;28;20298;-78
2023/01/30 11:18:58;;;;;;;21.77;20.13;;;;;;;;;;5080706;28;20569;-78
2023/01/30 11:21:26;;;;;;;21.83;19.85;;;;;;;;;;5078091;28;20271;-78
2023/01/30 11:23:54;;;;;;;22.70;20.90;;;;;;;;;;5080250;28;20202;-78
2023/01/30 11:26:24;;;;;;;22.58;20.40;;;;;;;;;;5082072;28;20281;-78
2023/01/30 11:28:51;;;;;;;20.40;19.10;;;;;;;;;;5080384;28;20207;-78
2023/01/30 11:31:19;;;;;;;21.73;20.17;;;;;;;;;;5077165;28;20264;-78
2023/01/30 11:33:46;;;;;;;22.00;20.08;;;;;;;;;;5083230;28;20224;-77
2023/01/30 11:36:25;;;;;;;21.38;19.70;;;;;;;;;;5080887;28;20568;-78
2023/01/30 11:38:56;;;;;;;19.90;18.70;;;;;;;;;;5083356;28;20257;-79
2023/01/30 11:41:24;;;;;;;21.40;19.88;;;;;;;;;;5081234;28;20280;-79
2023/01/30 11:43:51;;;;;;;21.35;19.30;;;;;;;;;;5078213;28;20206;-79
2023/01/30 11:46:20;;;;;;;21.75;19.60;;;;;;;;;;5082293;28;20226;-79
2023/01/30 11:48:50;;;;;;;23.35;21.02;;;;;;;;;;5077698;28;20251;-78
2023/01/30 11:51:17;;;;;;;23.25;20.50;;;;;;;;;;5075715;28;20256;-78
2023/01/30 11:53:45;;;;;;;21.08;19.67;;;;;;;;;;5075033;28;20206;-78
2023/01/30 11:56:16;;;;;;;21.05;19.38;;;;;;;;;;5075257;28;20232;-78
2023/01/30 11:58:47;;;;;;;20.02;18.92;;;;;;;;;;5076639;28;20255;-78
2023/01/30 12:01:15;;;;;;;21.90;20.10;;;;;;;;;;5075549;28;20225;-79
2023/01/30 12:03:46;;;;;;;20.45;19.15;;;;;;;;;;5074970;28;20709;-79
2023/01/30 12:06:15;;;;;;;26.73;19.90;;;;;;;;;;5075285;28;20761;-82
2023/01/30 12:08:43;;;;;;;24.10;21.70;;;;;;;;;;5074721;28;20207;-78
2023/01/30 12:11:24;;;;;;;24.05;21.58;;;;;;;;;;5074161;28;20207;-79
2023/01/30 12:13:53;;;;;;;21.77;20.13;;;;;;;;;;5074396;28;20639;-79
2023/01/30 12:16:23;;;;;;;22.92;20.27;;;;;;;;;;5074431;28;20253;-79
2023/01/30 12:18:54;;;;;;;21.17;19.55;;;;;;;;;;5073675;28;20237;-78
2023/01/30 12:21:27;;;;;;;21.88;20.42;;;;;;;;;;5073510;28;20287;-79
2023/01/30 12:23:58;;;;;;;22.33;20.58;;;;;;;;;;5074294;28;20198;-78
2023/01/30 12:26:27;;;;;;;23.58;21.17;;;;;;;;;;5074158;28;20222;-78
2023/01/30 12:28:57;;;;;;;23.35;20.90;;;;;;;;;;5075809;28;20214;-79
2023/01/30 12:31:26;;;;;;;21.40;20.20;;;;;;;;;;5074474;28;20206;-79
2023/01/30 12:33:54;;;;;;;23.15;20.40;;;;;;;;;;5075792;28;20233;-79
2023/01/30 12:36:25;;;;;;;21.92;20.00;;;;;;;;;;5076196;28;20681;-79
2023/01/30 12:39:05;;;;;;;22.20;20.50;;;;;;;;;;5083972;28;20210;-84
2023/01/30 12:41:44;;;;;;;22.73;20.52;;;;;;;;;;5075975;28;20272;-81
2023/01/30 12:44:19;;;;;;;22.38;20.17;;;;;;;;;;5078444;28;20190;-85
2023/01/30 12:46:53;;;;;;;23.52;21.38;;;;;;;;;;5076770;28;20194;-75
2023/01/30 12:49:28;;;;;;;21.90;20.10;;;;;;;;;;5074708;28;20241;-80
2023/01/30 12:52:03;;;;;;;22.38;20.77;;;;;;;;;;5076133;28;20888;-86
2023/01/30 12:54:37;;;;;;;44.38;41.55;;;;;;;;;;5077125;28;20703;-80
2023/01/30 12:57:10;;;;;;;54.92;51.45;;;;;;;;;;5076109;28;20249;-76
2023/01/30 12:59:47;;;;;;;62.13;57.85;;;;;;;;;;5081080;28;20194;-82
2023/01/30 13:02:22;;;;;;;63.55;59.55;;;;;;;;;;5080992;28;20229;-87
2023/01/30 13:04:54;;;;;;;55.53;51.58;;;;;;;;;;5079984;28;20772;-83
2023/01/30 13:07:25;;;;;;;40.08;37.47;;;;;;;;;;5080302;28;20193;-81
2023/01/30 13:10:02;;;;;;;30.58;28.58;;;;;;;;;;5081267;28;20198;-87
2023/01/30 13:12:33;;;;;;;28.40;26.65;;;;;;;;;;5080060;28;20688;-79
2023/01/30 13:15:04;;;;;;;29.65;27.27;;;;;;;;;;5078761;28;20230;-91
2023/01/30 13:17:39;;;;;;;28.27;26.08;;;;;;;;;;5079299;28;20193;-80
2023/01/30 13:20:15;;;;;;;28.35;26.33;;;;;;;;;;5079936;28;20206;-79
2023/01/30 13:22:47;;;;;;;26.92;25.08;;;;;;;;;;5079592;28;20221;-81
2023/01/30 13:25:19;;;;;;;29.30;26.98;;;;;;;;;;5080483;28;20235;-79
2023/01/30 13:27:50;;;;;;;28.77;26.65;;;;;;;;;;5080113;28;20190;-80
2023/01/30 13:30:19;;;;;;;43.50;34.15;;;;;;;;;;5080452;28;20543;-80
2023/01/30 13:32:47;;;;;;;34.05;31.30;;;;;;;;;;5079909;28;20198;-80
2023/01/30 13:35:17;;;;;;;34.95;32.47;;;;;;;;;;5080596;28;20222;-80
2023/01/30 13:37:45;;;;;;;35.35;32.78;;;;;;;;;;5080553;28;20205;-80
2023/01/30 13:40:16;;;;;;;38.40;35.40;;;;;;;;;;5081469;28;20211;-79
2023/01/30 13:42:45;;;;;;;37.17;34.15;;;;;;;;;;5078992;28;20319;-80
2023/01/30 13:45:15;;;;;;;35.67;32.72;;;;;;;;;;5087292;28;20276;-79
2023/01/30 13:47:49;;;;;;;31.70;29.20;;;;;;;;;;5083501;28;20197;-80
2023/01/30 13:50:28;;;;;;;33.03;29.95;;;;;;;;;;5086315;28;20202;-80
2023/01/30 13:52:59;;;;;;;33.50;31.15;;;;;;;;;;5081827;28;20191;-79
2023/01/30 13:55:29;;;;;;;33.65;30.95;;;;;;;;;;5080758;28;20224;-80
2023/01/30 13:58:00;;;;;;;35.05;31.90;;;;;;;;;;5079915;28;20248;-79
2023/01/30 14:00:29;;;;;;;32.80;30.10;;;;;;;;;;5079067;28;20209;-79
2023/01/30 14:03:15;;;;;;;33.58;31.13;;;;;;;;;;5078694;28;20229;-79
2023/01/30 14:06:04;;;;;;;33.10;30.50;;;;;;;;;;5080281;28;20293;-79
2023/01/30 14:08:34;;;;;;;36.28;33.85;;;;;;;;;;5081206;28;20220;-79
2023/01/30 14:11:01;;;;;;;36.70;34.00;;;;;;;;;;5080272;28;20197;-79
2023/01/30 14:13:28;;;;;;;36.25;33.72;;;;;;;;;;5079402;28;20249;-79
2023/01/30 14:15:56;;;;;;;36.53;33.90;;;;;;;;;;5080112;28;20226;-79
2023/01/30 14:18:25;;;;;;;38.20;34.70;;;;;;;;;;5079501;28;20197;-79
2023/01/30 14:20:52;;;;;;;39.80;36.92;;;;;;;;;;5084854;28;20210;-79
2023/01/30 14:23:22;;;;;;;40.47;37.20;;;;;;;;;;5080281;28;20230;-79
2023/01/30 14:25:50;;;;;;;39.50;36.72;;;;;;;;;;5080321;28;20267;-80
2023/01/30 14:28:49;;;;;;;40.03;36.88;;;;;;;;;;5077927;28;20281;-79
2023/01/30 14:31:35;;;;;;;42.47;39.25;;;;;;;;;;5077770;28;20592;-80
2023/01/30 14:34:02;;;;;;;42.10;39.50;;;;;;;;;;5080728;28;20198;-80
2023/01/30 14:36:33;;;;;;;41.72;39.22;;;;;;;;;;5080851;28;20237;-80